createdAt,value
2022-11-15T00:04:38.948Z,32.37
2022-11-15T00:09:45.810Z,29.63
2022-11-15T00:14:49.718Z,29.90
2022-11-15T00:19:53.068Z,32.00
2022-11-15T00:24:56.565Z,31.73
2022-11-15T00:30:00.009Z,30.57
2022-11-15T00:35:04.698Z,31.57
2022-11-15T00:40:09.170Z,32.70
2022-11-15T00:45:12.494Z,30.83
2022-11-15T00:50:16.226Z,30.33
2022-11-15T00:55:20.957Z,30.30
2022-11-15T01:00:24.375Z,32.23
2022-11-15T01:05:27.923Z,30.43
2022-11-15T01:10:31.288Z,33.53
2022-11-15T01:15:34.621Z,31.30
2022-11-15T01:20:43.555Z,30.07
2022-11-15T01:25:46.618Z,31.07
2022-11-15T01:30:49.987Z,29.47
2022-11-15T01:35:53.368Z,31.43
2022-11-15T01:40:56.657Z,29.90
2022-11-15T01:46:25.192Z,28.73
2022-11-15T01:51:31.845Z,30.50
2022-11-15T01:56:42.407Z,28.27
2022-11-15T02:01:45.900Z,28.87
2022-11-15T02:06:50.540Z,32.27
2022-11-15T02:11:55.511Z,32.40
2022-11-15T02:17:35.112Z,28.33
2022-11-15T02:22:57.567Z,31.23
2022-11-15T02:28:52.165Z,32.00
2022-11-15T02:34:10.178Z,30.57
2022-11-15T02:39:35.089Z,29.43
2022-11-15T02:44:47.063Z,28.90
2022-11-15T02:49:53.827Z,27.30
2022-11-15T02:55:02.271Z,27.80
2022-11-15T03:00:15.971Z,29.00
2022-11-15T03:05:39.687Z,27.57
2022-11-15T03:11:13.272Z,26.03
2022-11-15T03:16:35.677Z,28.33
2022-11-15T03:21:41.816Z,26.37
2022-11-15T03:26:47.317Z,28.17
2022-11-15T03:31:59.057Z,28.03
2022-11-15T03:37:03.022Z,28.90
2022-11-15T03:42:30.577Z,30.07
2022-11-15T03:47:40.467Z,28.80
2022-11-15T03:52:46.360Z,28.43
2022-11-15T03:57:52.843Z,27.27
2022-11-15T04:02:56.356Z,26.43
2022-11-15T04:07:59.729Z,27.93
2022-11-15T04:13:04.589Z,26.90
2022-11-15T04:18:08.010Z,26.93
2022-11-15T04:23:36.248Z,28.57
2022-11-15T04:28:58.490Z,26.80
2022-11-15T04:34:01.948Z,28.70
2022-11-15T04:39:05.357Z,26.63
2022-11-15T04:44:08.788Z,30.17
2022-11-15T04:49:12.127Z,29.80
2022-11-15T04:54:15.476Z,30.83
2022-11-15T04:59:18.815Z,30.17
2022-11-15T05:09:55.795Z,35.10
2022-11-15T05:14:59.241Z,34.23
2022-11-15T05:20:02.320Z,32.30
2022-11-15T05:25:06.162Z,33.53
2022-11-15T05:30:10.098Z,34.07
2022-11-15T05:35:40.693Z,31.77
2022-11-15T05:40:44.131Z,31.10
2022-11-15T05:45:48.121Z,28.80
2022-11-15T05:50:51.791Z,29.53
2022-11-15T05:55:55.511Z,28.43
2022-11-15T06:00:59.583Z,27.70
2022-11-15T06:06:02.904Z,29.90
2022-11-15T06:11:08.129Z,29.97
2022-11-15T06:16:11.845Z,27.57
2022-11-15T06:21:15.220Z,30.77
2022-11-15T06:26:18.594Z,30.90
2022-11-15T06:31:22.122Z,27.70
2022-11-15T06:36:25.321Z,27.50
2022-11-15T06:41:28.852Z,29.13
2022-11-15T06:46:32.256Z,30.80
2022-11-15T06:51:35.309Z,28.43
2022-11-15T06:56:39.214Z,29.40
2022-11-15T07:01:42.327Z,26.57
2022-11-15T07:06:49.434Z,27.43
2022-11-15T07:11:53.031Z,27.30
2022-11-15T07:16:57.143Z,28.27
2022-11-15T07:22:00.613Z,27.97
2022-11-15T07:27:04.157Z,26.53
2022-11-15T07:32:07.470Z,29.10
2022-11-15T07:37:10.974Z,29.63
2022-11-15T07:42:33.386Z,28.50
2022-11-15T07:47:36.504Z,25.60
2022-11-15T07:52:40.253Z,27.00
2022-11-15T07:57:43.602Z,26.30
2022-11-15T08:02:47.410Z,25.83
2022-11-15T08:07:52.743Z,25.67
2022-11-15T08:13:04.845Z,25.97
2022-11-15T08:18:13.118Z,26.20
2022-11-15T08:23:16.381Z,26.87
2022-11-15T08:28:21.945Z,26.53
2022-11-15T08:33:26.253Z,28.93
2022-11-15T08:38:32.765Z,28.50
2022-11-15T08:43:36.689Z,28.13
2022-11-15T08:48:40.667Z,29.40
2022-11-15T08:53:45.222Z,29.33
2022-11-15T08:58:48.735Z,26.83
2022-11-15T09:03:52.673Z,26.93
2022-11-15T09:08:56.283Z,29.83
2022-11-15T09:14:00.061Z,31.80
2022-11-15T09:19:06.431Z,32.67
2022-11-15T09:24:16.663Z,32.07
2022-11-15T09:29:22.094Z,29.17
2022-11-15T09:34:25.555Z,28.07
2022-11-15T09:39:29.158Z,27.37
2022-11-15T09:44:44.706Z,29.03
2022-11-15T09:50:00.625Z,29.90
2022-11-15T09:55:04.321Z,30.70
2022-11-15T10:05:46.390Z,27.00
2022-11-15T10:11:09.706Z,27.90
2022-11-15T10:16:35.505Z,26.13
2022-11-15T10:21:53.229Z,26.37
2022-11-15T10:26:57.887Z,28.37
2022-11-15T10:32:01.299Z,27.23
2022-11-15T10:37:04.489Z,26.20
2022-11-15T10:42:29.221Z,25.97
2022-11-15T10:47:39.162Z,27.03
2022-11-15T10:52:48.445Z,26.57
2022-11-15T10:58:07.134Z,28.50
2022-11-15T11:03:36.053Z,25.43
2022-11-15T11:08:40.374Z,25.10
2022-11-15T11:13:43.746Z,24.37
2022-11-15T11:18:57.804Z,25.23
2022-11-15T11:24:27.395Z,25.90
2022-11-15T11:29:52.283Z,26.60
2022-11-15T11:35:08.593Z,24.00
2022-11-15T11:40:31.798Z,25.20
2022-11-15T11:45:38.050Z,25.47
2022-11-15T11:50:44.665Z,24.10
2022-11-15T11:55:53.484Z,25.53
2022-11-15T12:01:01.835Z,22.63
2022-11-15T12:06:20.994Z,23.87
2022-11-15T12:12:01.485Z,23.90
2022-11-15T12:17:05.217Z,23.77
2022-11-15T12:22:25.964Z,22.47
2022-11-15T12:27:50.358Z,24.70
2022-11-15T12:33:00.606Z,23.57
2022-11-15T12:38:04.455Z,24.10
2022-11-15T12:43:16.788Z,22.73
2022-11-15T12:48:19.881Z,23.40
2022-11-15T12:53:26.371Z,22.43
2022-11-15T12:58:44.421Z,23.33
2022-11-15T13:04:23.304Z,22.90
2022-11-15T13:09:36.401Z,23.90
2022-11-15T13:14:44.216Z,21.70
2022-11-15T13:20:00.835Z,22.20
2022-11-15T13:25:05.209Z,23.00
2022-11-15T13:30:17.906Z,22.10
2022-11-15T13:35:27.263Z,22.23
2022-11-15T13:40:36.795Z,22.87
2022-11-15T13:45:40.304Z,21.77
2022-11-15T13:50:44.083Z,22.20
2022-11-15T13:55:47.554Z,25.00
2022-11-15T14:01:04.342Z,28.13
2022-11-15T14:06:13.967Z,26.03
2022-11-15T14:11:20.736Z,23.33
2022-11-15T14:16:35.964Z,23.40
2022-11-15T14:21:39.019Z,21.20
2022-11-15T14:26:42.736Z,22.77
2022-11-15T14:31:48.267Z,23.97
2022-11-15T14:36:52.551Z,23.90
2022-11-15T14:41:55.975Z,23.27
2022-11-15T14:46:59.193Z,22.03
2022-11-15T14:52:02.435Z,19.67
2022-11-15T14:57:05.528Z,21.47
2022-11-15T15:02:24.417Z,23.93
2022-11-15T15:07:27.986Z,24.80
2022-11-15T15:12:31.655Z,25.73
2022-11-15T15:17:34.815Z,24.17
2022-11-15T15:22:39.061Z,24.70
2022-11-15T15:27:42.254Z,26.13
2022-11-15T15:32:45.900Z,25.33
2022-11-15T15:37:51.503Z,26.63
2022-11-15T15:42:55.464Z,29.83
2022-11-15T15:47:58.964Z,30.57
2022-11-15T15:53:04.895Z,32.03
2022-11-15T15:58:09.515Z,24.83
2022-11-15T16:03:12.983Z,24.67
2022-11-15T16:08:28.559Z,29.33
2022-11-15T16:13:36.124Z,25.37
2022-11-15T16:18:39.584Z,25.27
2022-11-15T16:23:43.787Z,24.03
2022-11-15T16:28:47.585Z,26.47
2022-11-15T16:33:51.634Z,21.10
2022-11-15T16:38:55.645Z,25.33
2022-11-15T16:43:59.465Z,26.67
2022-11-15T16:49:03.028Z,28.97
2022-11-15T16:54:06.832Z,27.83
2022-11-15T16:59:16.682Z,28.23
2022-11-15T17:04:23.490Z,28.20
2022-11-15T17:09:28.135Z,27.07
2022-11-15T17:14:32.737Z,28.13
2022-11-15T17:19:36.102Z,27.60
2022-11-15T17:24:40.774Z,29.37
2022-11-15T17:29:44.288Z,29.47
2022-11-15T17:34:48.139Z,24.87
2022-11-15T17:39:52.151Z,26.90
2022-11-15T17:44:57.403Z,26.90
2022-11-15T17:50:01.326Z,25.37
2022-11-15T17:55:05.128Z,24.67
2022-11-15T18:00:09.311Z,27.17
2022-11-15T18:05:15.937Z,27.07
2022-11-15T18:10:21.676Z,24.97
2022-11-15T18:15:25.907Z,23.53
2022-11-15T18:20:29.488Z,23.77
2022-11-15T18:25:33.384Z,24.43
2022-11-15T18:30:40.456Z,23.90
2022-11-15T18:35:49.336Z,23.53
2022-11-15T18:40:53.365Z,24.80
2022-11-15T18:46:02.246Z,24.53
2022-11-15T18:51:12.075Z,24.87
2022-11-15T18:56:20.762Z,22.50
2022-11-15T19:01:27.833Z,20.97
2022-11-15T19:06:33.198Z,23.47
2022-11-15T19:11:44.064Z,23.27
2022-11-15T19:16:55.848Z,20.93
2022-11-15T19:22:00.524Z,22.37
2022-11-15T19:27:06.145Z,24.80
2022-11-15T19:32:11.151Z,23.97
2022-11-15T19:37:16.480Z,21.97
2022-11-15T19:42:20.383Z,22.37
2022-11-15T19:47:25.243Z,24.43
2022-11-15T19:52:33.224Z,24.70
2022-11-15T19:57:41.481Z,21.13
2022-11-15T20:02:46.182Z,20.20
2022-11-15T20:07:51.306Z,17.63
2022-11-15T20:12:54.923Z,17.37
2022-11-15T20:17:58.293Z,16.90
2022-11-15T20:23:07.038Z,17.27
2022-11-15T20:28:20.943Z,16.80
2022-11-15T20:33:25.540Z,17.73
2022-11-15T20:38:32.249Z,15.73
2022-11-15T20:43:36.385Z,17.77
2022-11-15T20:48:40.661Z,15.37
2022-11-15T20:53:46.114Z,14.13
2022-11-15T20:58:53.596Z,14.50
2022-11-15T21:03:59.023Z,14.93
2022-11-15T21:09:21.113Z,14.77
2022-11-15T21:14:25.287Z,14.97
2022-11-15T21:19:35.648Z,14.47
2022-11-15T21:24:40.958Z,14.60
2022-11-15T21:29:46.095Z,14.43
2022-11-15T21:34:51.973Z,16.53
2022-11-15T21:39:56.254Z,14.37
2022-11-15T21:45:01.053Z,14.77
2022-11-15T21:50:04.539Z,16.73
2022-11-15T21:55:09.780Z,16.60
2022-11-15T22:00:34.312Z,17.73
2022-11-15T22:05:39.530Z,17.73
2022-11-15T22:10:48.381Z,17.73
2022-11-15T22:15:54.672Z,18.77
2022-11-15T22:21:00.147Z,18.77
2022-11-15T22:26:04.289Z,20.77
2022-11-15T22:31:08.540Z,19.67
2022-11-15T22:36:13.408Z,19.43
2022-11-15T22:41:17.012Z,20.73
2022-11-15T22:46:20.572Z,19.83
2022-11-15T22:51:24.030Z,23.20
2022-11-15T22:56:27.688Z,21.67
2022-11-15T23:01:31.051Z,23.50
2022-11-15T23:06:34.409Z,20.90
2022-11-15T23:11:56.049Z,19.67
2022-11-15T23:16:59.546Z,25.67
2022-11-15T23:22:21.346Z,18.30
2022-11-15T23:27:24.849Z,19.13
2022-11-15T23:32:46.770Z,16.87
2022-11-15T23:37:50.228Z,17.57
2022-11-15T23:42:53.688Z,16.23
2022-11-15T23:48:01.079Z,17.27
2022-11-15T23:53:05.917Z,14.63
2022-11-15T23:58:09.507Z,16.97
